createdAt,value
2019-04-03T00:01:15.105Z,4.72
2019-04-03T00:03:43.711Z,4.97
2019-04-03T00:06:12.378Z,4.72
2019-04-03T00:08:40.977Z,4.60
2019-04-03T00:11:11.131Z,4.45
2019-04-03T00:13:41.847Z,3.40
2019-04-03T00:16:10.246Z,4.92
2019-04-03T00:18:38.812Z,4.45
2019-04-03T00:21:07.441Z,4.42
2019-04-03T00:23:36.097Z,5.47
2019-04-03T00:26:04.756Z,5.00
2019-04-03T00:28:33.355Z,4.20
2019-04-03T00:31:01.946Z,3.67
2019-04-03T00:33:30.553Z,4.30
2019-04-03T00:35:59.217Z,4.12
2019-04-03T00:38:27.833Z,4.20
2019-04-03T00:40:56.485Z,3.92
2019-04-03T00:43:25.362Z,4.40
2019-04-03T00:45:54.543Z,4.17
2019-04-03T00:48:25.767Z,4.17
2019-04-03T00:50:56.365Z,4.37
2019-04-03T00:53:25.861Z,4.58
2019-04-03T00:55:56.478Z,5.03
2019-04-03T00:58:36.698Z,5.05
2019-04-03T01:01:10.401Z,3.80
2019-04-03T01:03:39.537Z,5.08
2019-04-03T01:06:08.378Z,4.80
2019-04-03T01:08:37.221Z,4.55
2019-04-03T01:11:05.909Z,6.10
2019-04-03T01:13:34.954Z,4.90
2019-04-03T01:16:03.686Z,5.12
2019-04-03T01:18:34.376Z,5.47
2019-04-03T01:21:02.676Z,5.47
2019-04-03T01:23:31.459Z,5.10
2019-04-03T01:26:00.049Z,5.15
2019-04-03T01:28:28.657Z,5.28
2019-04-03T01:30:57.322Z,4.75
2019-04-03T01:33:26.056Z,5.47
2019-04-03T01:35:54.725Z,5.75
2019-04-03T01:38:23.389Z,4.58
2019-04-03T01:40:52.000Z,4.72
2019-04-03T01:43:21.552Z,5.15
2019-04-03T01:45:50.920Z,3.83
2019-04-03T01:48:19.513Z,5.15
2019-04-03T01:50:48.125Z,4.95
2019-04-03T01:53:16.800Z,4.87
2019-04-03T01:55:45.466Z,3.87
2019-04-03T01:58:14.129Z,4.72
2019-04-03T02:00:42.818Z,4.35
2019-04-03T02:03:11.612Z,4.53
2019-04-03T02:05:43.284Z,4.22
2019-04-03T02:08:10.718Z,4.20
2019-04-03T02:10:39.302Z,4.42
2019-04-03T02:13:07.973Z,6.53
2019-04-03T02:15:36.638Z,5.30
2019-04-03T02:18:05.383Z,4.80
2019-04-03T02:20:34.336Z,4.28
2019-04-03T02:23:02.939Z,4.40
2019-04-03T02:25:32.169Z,4.85
2019-04-03T02:28:01.876Z,4.30
2019-04-03T02:30:31.475Z,4.92
2019-04-03T02:33:00.105Z,4.92
2019-04-03T02:35:28.712Z,5.05
2019-04-03T02:37:57.378Z,5.50
2019-04-03T02:40:26.225Z,9.20
2019-04-03T02:42:55.092Z,10.78
2019-04-03T02:45:24.540Z,9.58
2019-04-03T02:47:53.662Z,7.20
2019-04-03T02:50:24.299Z,16.60
2019-04-03T02:52:56.694Z,38.70
2019-04-03T02:55:24.895Z,14.70
2019-04-03T02:57:53.645Z,11.73
2019-04-03T03:00:22.339Z,8.83
2019-04-03T03:02:51.010Z,8.68
2019-04-03T03:05:20.214Z,9.03
2019-04-03T03:07:48.988Z,8.13
2019-04-03T03:10:19.474Z,11.35
2019-04-03T03:12:48.498Z,7.62
2019-04-03T03:15:17.218Z,8.65
2019-04-03T03:17:46.342Z,8.48
2019-04-03T03:20:18.027Z,10.23
2019-04-03T03:22:49.825Z,8.90
2019-04-03T03:25:17.454Z,8.85
2019-04-03T03:27:46.824Z,10.98
2019-04-03T03:30:34.117Z,12.47
2019-04-03T03:32:46.392Z,11.55
2019-04-03T03:35:23.037Z,13.38
2019-04-03T03:37:46.147Z,11.28
2019-04-03T03:40:16.135Z,13.45
2019-04-03T03:42:45.338Z,10.00
2019-04-03T03:45:18.322Z,10.68
2019-04-03T03:47:44.718Z,6.87
2019-04-03T03:50:13.531Z,8.20
2019-04-03T03:52:42.260Z,8.28
2019-04-03T03:55:11.421Z,7.08
2019-04-03T03:57:41.169Z,6.72
2019-04-03T04:00:11.206Z,6.53
2019-04-03T04:02:43.778Z,8.57
2019-04-03T04:05:11.856Z,4.75
2019-04-03T04:07:41.162Z,6.05
2019-04-03T04:10:10.117Z,5.58
2019-04-03T04:12:41.160Z,5.90
2019-04-03T04:15:09.270Z,4.40
2019-04-03T04:17:38.073Z,7.53
2019-04-03T04:20:07.754Z,7.45
2019-04-03T04:22:37.313Z,9.23
2019-04-03T04:25:06.941Z,14.38
2019-04-03T04:27:38.019Z,12.37
2019-04-03T04:30:06.670Z,12.45
2019-04-03T04:32:35.545Z,12.45
2019-04-03T04:35:05.660Z,10.18
2019-04-03T04:37:34.422Z,9.93
2019-04-03T04:40:03.356Z,9.33
2019-04-03T04:42:34.348Z,9.60
2019-04-03T04:45:02.414Z,10.40
2019-04-03T04:47:31.083Z,10.15
2019-04-03T04:49:59.816Z,10.55
2019-04-03T04:52:28.561Z,10.18
2019-04-03T04:54:57.309Z,10.38
2019-04-03T04:57:26.016Z,9.93
2019-04-03T04:59:54.685Z,10.23
2019-04-03T05:02:23.557Z,11.25
2019-04-03T05:04:52.249Z,12.10
2019-04-03T05:07:20.944Z,10.32
2019-04-03T05:09:49.552Z,9.15
2019-04-03T05:12:18.221Z,9.98
2019-04-03T05:14:48.942Z,10.00
2019-04-03T05:17:17.345Z,5.87
2019-04-03T05:19:48.275Z,7.90
2019-04-03T05:22:16.347Z,9.58
2019-04-03T05:24:45.159Z,8.63
2019-04-03T05:27:13.858Z,8.60
2019-04-03T05:29:42.524Z,7.65
2019-04-03T05:32:11.276Z,7.65
2019-04-03T05:34:39.946Z,9.25
2019-04-03T05:37:11.461Z,9.75
2019-04-03T05:39:39.505Z,9.08
2019-04-03T05:42:08.185Z,12.00
2019-04-03T05:44:36.857Z,10.03
2019-04-03T05:47:07.369Z,9.50
2019-04-03T05:49:36.064Z,9.40
2019-04-03T05:52:05.174Z,9.73
2019-04-03T05:54:33.848Z,7.78
2019-04-03T05:57:02.592Z,19.90
2019-04-03T05:59:33.699Z,10.23
2019-04-03T06:02:14.034Z,13.38
2019-04-03T06:04:32.069Z,7.95
2019-04-03T06:07:01.039Z,9.78
2019-04-03T06:09:29.925Z,8.05
2019-04-03T06:11:58.654Z,6.40
2019-04-03T06:14:27.400Z,7.62
2019-04-03T06:16:56.712Z,6.65
2019-04-03T06:19:25.847Z,8.78
2019-04-03T06:21:54.628Z,4.80
2019-04-03T06:24:24.385Z,5.72
2019-04-03T06:26:53.743Z,5.17
2019-04-03T06:29:22.509Z,4.78
2019-04-03T06:31:51.137Z,4.55
2019-04-03T06:34:19.812Z,5.42
2019-04-03T06:36:50.768Z,5.55
2019-04-03T06:39:22.176Z,4.47
2019-04-03T06:41:49.149Z,7.25
2019-04-03T06:44:17.829Z,5.87
2019-04-03T06:46:46.672Z,6.33
2019-04-03T06:49:15.488Z,5.45
2019-04-03T06:51:44.779Z,4.75
2019-04-03T06:54:13.530Z,4.90
2019-04-03T06:56:42.273Z,10.50
2019-04-03T06:59:11.012Z,5.22
2019-04-03T07:01:39.776Z,5.00
2019-04-03T07:04:08.463Z,6.97
2019-04-03T07:06:37.143Z,5.70
2019-04-03T07:09:07.543Z,3.52
2019-04-03T07:11:36.301Z,3.77
2019-04-03T07:14:04.985Z,4.53
2019-04-03T07:16:33.613Z,4.42
2019-04-03T07:19:02.453Z,4.42
2019-04-03T07:21:31.133Z,4.00
2019-04-03T07:24:00.672Z,3.90
2019-04-03T07:26:30.004Z,5.40
2019-04-03T07:28:58.761Z,3.98
2019-04-03T07:31:27.489Z,3.95
2019-04-03T07:33:58.181Z,4.40
2019-04-03T07:36:26.471Z,5.45
2019-04-03T07:38:57.916Z,4.37
2019-04-03T07:41:25.353Z,4.67
2019-04-03T07:43:54.032Z,4.30
2019-04-03T07:46:22.705Z,4.30
2019-04-03T07:48:51.432Z,5.60
2019-04-03T07:51:20.065Z,6.72
2019-04-03T07:53:50.245Z,3.90
2019-04-03T07:56:19.079Z,3.62
2019-04-03T07:58:47.833Z,4.08
2019-04-03T08:01:18.463Z,5.95
2019-04-03T08:03:46.920Z,4.80
2019-04-03T08:06:15.621Z,3.67
2019-04-03T08:08:44.339Z,3.80
2019-04-03T08:11:14.739Z,3.83
2019-04-03T08:13:43.336Z,3.00
2019-04-03T08:16:12.013Z,4.17
2019-04-03T08:18:40.888Z,4.30
2019-04-03T08:21:09.568Z,4.47
2019-04-03T08:23:38.310Z,4.12
2019-04-03T08:26:07.246Z,4.35
2019-04-03T08:28:35.977Z,4.20
2019-04-03T08:31:04.933Z,4.28
2019-04-03T08:33:33.710Z,4.90
2019-04-03T08:36:02.383Z,4.25
2019-04-03T08:38:31.133Z,3.75
2019-04-03T08:41:02.932Z,4.25
2019-04-03T08:43:32.661Z,4.33
2019-04-03T08:46:00.625Z,4.12
2019-04-03T08:48:29.528Z,3.72
2019-04-03T08:51:00.495Z,4.60
2019-04-03T08:53:28.530Z,29.32
2019-04-03T08:55:57.209Z,3.85
2019-04-03T08:58:26.667Z,4.30
2019-04-03T09:00:55.672Z,3.98
2019-04-03T09:03:24.354Z,4.22
2019-04-03T09:05:55.637Z,4.92
2019-04-03T09:08:26.071Z,4.40
2019-04-03T09:10:53.853Z,3.87
2019-04-03T09:13:23.748Z,3.40
2019-04-03T09:15:52.782Z,3.20
2019-04-03T09:18:21.443Z,3.45
2019-04-03T09:20:50.321Z,3.90
2019-04-03T09:23:19.119Z,4.08
2019-04-03T09:25:48.183Z,3.80
2019-04-03T09:28:16.853Z,4.67
2019-04-03T09:30:47.943Z,3.95
2019-04-03T09:33:15.949Z,3.15
2019-04-03T09:35:44.704Z,4.33
2019-04-03T09:38:13.386Z,4.53
2019-04-03T09:40:42.057Z,3.52
2019-04-03T09:43:10.806Z,3.80
2019-04-03T09:45:39.477Z,4.87
2019-04-03T09:48:10.957Z,3.60
2019-04-03T09:50:38.549Z,4.25
2019-04-03T09:53:07.304Z,4.50
2019-04-03T09:55:37.531Z,4.25
2019-04-03T09:58:06.810Z,3.95
2019-04-03T10:00:35.572Z,5.87
2019-04-03T10:03:05.931Z,5.60
2019-04-03T10:05:35.022Z,4.03
2019-04-03T10:08:03.820Z,4.47
2019-04-03T10:10:32.558Z,4.17
2019-04-03T10:13:01.318Z,5.10
2019-04-03T10:15:31.255Z,3.87
2019-04-03T10:18:00.638Z,3.87
2019-04-03T10:20:29.688Z,4.17
2019-04-03T10:22:58.524Z,4.15
2019-04-03T10:25:27.301Z,4.33
2019-04-03T10:27:55.978Z,3.80
2019-04-03T10:30:24.962Z,4.87
2019-04-03T10:32:53.631Z,5.78
2019-04-03T10:35:22.277Z,4.15
2019-04-03T10:37:50.966Z,4.03
2019-04-03T10:40:19.975Z,4.00
2019-04-03T10:42:48.681Z,3.75
2019-04-03T10:45:18.325Z,4.87
2019-04-03T10:47:47.073Z,3.47
2019-04-03T10:50:16.129Z,3.85
2019-04-03T10:52:47.947Z,3.37
2019-04-03T10:55:15.389Z,3.70
2019-04-03T10:57:44.126Z,3.98
2019-04-03T11:00:14.773Z,3.95
2019-04-03T11:02:43.511Z,3.98
2019-04-03T11:05:13.941Z,5.92
2019-04-03T11:07:42.678Z,3.80
2019-04-03T11:10:11.957Z,4.37
2019-04-03T11:12:40.545Z,4.35
2019-04-03T11:15:11.670Z,4.47
2019-04-03T11:17:40.076Z,3.15
2019-04-03T11:20:11.080Z,3.47
2019-04-03T11:22:42.169Z,4.10
2019-04-03T11:25:15.288Z,3.33
2019-04-03T11:27:44.750Z,3.47
2019-04-03T11:30:17.747Z,3.12
2019-04-03T11:32:45.188Z,4.15
2019-04-03T11:35:15.024Z,4.60
2019-04-03T11:37:43.757Z,3.58
2019-04-03T11:40:13.306Z,3.67
2019-04-03T11:42:42.224Z,3.62
2019-04-03T11:45:11.322Z,3.37
2019-04-03T11:47:40.317Z,3.90
2019-04-03T11:50:09.522Z,5.05
2019-04-03T11:52:38.273Z,3.25
2019-04-03T11:55:09.878Z,3.22
2019-04-03T11:57:37.909Z,3.27
2019-04-03T12:00:11.060Z,3.52
2019-04-03T12:02:41.054Z,3.10
2019-04-03T12:05:10.238Z,3.55
2019-04-03T12:07:38.912Z,3.60
2019-04-03T12:10:08.461Z,3.05
2019-04-03T12:12:37.141Z,3.00
2019-04-03T12:15:07.463Z,2.77
2019-04-03T12:17:36.196Z,3.00
2019-04-03T12:20:09.256Z,2.70
2019-04-03T12:22:37.745Z,3.05
2019-04-03T12:25:07.391Z,2.85
2019-04-03T12:27:36.667Z,3.00
2019-04-03T12:30:08.245Z,2.90
2019-04-03T12:32:41.409Z,3.05
2019-04-03T12:35:09.923Z,2.90
2019-04-03T12:37:38.637Z,3.12
2019-04-03T12:40:08.777Z,2.77
2019-04-03T12:42:37.907Z,4.30
2019-04-03T12:45:08.468Z,3.35
2019-04-03T12:47:37.215Z,3.35
2019-04-03T12:50:12.073Z,3.30
2019-04-03T12:52:43.380Z,3.72
2019-04-03T12:55:10.752Z,6.05
2019-04-03T12:57:40.236Z,4.95
2019-04-03T13:00:12.739Z,3.85
2019-04-03T13:02:41.550Z,3.75
2019-04-03T13:05:10.304Z,3.10
2019-04-03T13:07:39.245Z,3.47
2019-04-03T13:10:10.336Z,3.42
2019-04-03T13:15:09.391Z,2.98
2019-04-03T13:17:38.241Z,3.05
2019-04-03T13:20:08.028Z,3.00
2019-04-03T13:22:36.877Z,3.40
2019-04-03T13:25:07.524Z,3.90
2019-04-03T13:27:36.357Z,3.55
2019-04-03T13:30:07.252Z,3.17
2019-04-03T13:32:35.980Z,3.20
2019-04-03T13:35:06.880Z,3.15
2019-04-03T13:37:35.620Z,2.52
2019-04-03T13:40:08.132Z,3.20
2019-04-03T13:42:36.878Z,3.12
2019-04-03T13:45:10.472Z,3.62
2019-04-03T13:47:41.049Z,3.00
2019-04-03T13:50:11.603Z,3.42
2019-04-03T13:52:43.586Z,3.92
2019-04-03T13:55:10.737Z,2.95
2019-04-03T13:57:39.549Z,3.37
2019-04-03T14:00:19.180Z,3.47
2019-04-03T14:02:40.006Z,3.40
2019-04-03T14:05:09.146Z,4.22
2019-04-03T14:07:40.385Z,2.85
2019-04-03T14:10:09.881Z,3.83
2019-04-03T14:12:43.298Z,3.60
2019-04-03T14:15:09.994Z,3.80
2019-04-03T14:17:38.757Z,2.80
2019-04-03T14:20:09.951Z,2.85
2019-04-03T14:22:38.629Z,2.95
2019-04-03T14:25:18.127Z,2.92
2019-04-03T14:27:38.431Z,3.25
2019-04-03T14:30:11.079Z,3.50
2019-04-03T14:32:39.980Z,3.67
2019-04-03T14:35:38.962Z,3.87
2019-04-03T14:37:40.005Z,4.15
2019-04-03T14:40:10.978Z,3.83
2019-04-03T14:42:39.377Z,4.55
2019-04-03T14:45:12.913Z,4.08
2019-04-03T14:47:40.113Z,2.87
2019-04-03T14:50:09.070Z,5.17
2019-04-03T14:52:37.821Z,3.05
2019-04-03T14:55:18.179Z,3.37
2019-04-03T14:57:38.267Z,3.50
2019-04-03T15:00:22.951Z,3.27
2019-04-03T15:02:40.660Z,3.35
2019-04-03T15:05:10.152Z,4.17
2019-04-03T15:07:38.833Z,3.58
2019-04-03T15:10:08.435Z,3.20
2019-04-03T15:12:39.803Z,4.97
2019-04-03T15:15:09.109Z,5.47
2019-04-03T15:17:38.957Z,4.40
2019-04-03T15:20:09.549Z,4.60
2019-04-03T15:22:38.376Z,4.95
2019-04-03T15:25:07.498Z,4.95
2019-04-03T15:27:36.902Z,4.60
2019-04-03T15:30:10.002Z,5.35
2019-04-03T15:32:38.279Z,4.08
2019-04-03T15:35:07.337Z,4.12
2019-04-03T15:37:36.193Z,4.65
2019-04-03T15:40:06.007Z,4.87
2019-04-03T15:42:34.778Z,4.55
2019-04-03T15:45:04.474Z,4.70
2019-04-03T15:47:37.087Z,4.70
2019-04-03T15:50:04.303Z,3.33
2019-04-03T15:52:32.973Z,4.25
2019-04-03T15:55:03.623Z,4.67
2019-04-03T15:57:32.095Z,4.85
2019-04-03T16:00:02.854Z,3.45
2019-04-03T16:02:31.266Z,4.58
2019-04-03T16:05:00.158Z,4.47
2019-04-03T16:07:32.094Z,9.20
2019-04-03T16:10:00.112Z,5.50
2019-04-03T16:12:29.233Z,16.97
2019-04-03T16:14:57.921Z,8.93
2019-04-03T16:17:26.980Z,7.05
2019-04-03T16:19:55.673Z,9.28
2019-04-03T16:22:24.809Z,17.23
2019-04-03T16:24:54.424Z,5.83
2019-04-03T16:27:23.145Z,4.50
2019-04-03T16:29:51.757Z,7.55
2019-04-03T16:32:20.818Z,10.50
2019-04-03T16:34:49.653Z,8.30
2019-04-03T16:37:20.514Z,18.40
2019-04-03T16:39:48.621Z,9.23
2019-04-03T16:42:17.298Z,6.97
2019-04-03T16:44:45.972Z,6.33
2019-04-03T16:47:15.075Z,5.12
2019-04-03T16:49:43.733Z,6.67
2019-04-03T16:52:12.732Z,6.12
2019-04-03T16:54:44.457Z,6.35
2019-04-03T16:57:11.723Z,9.48
2019-04-03T16:59:40.394Z,6.10
2019-04-03T17:02:09.152Z,5.28
2019-04-03T17:04:37.822Z,4.62
2019-04-03T17:07:06.569Z,6.95
2019-04-03T17:09:37.619Z,6.47
2019-04-03T17:12:05.593Z,5.65
2019-04-03T17:14:34.239Z,5.65
2019-04-03T17:17:03.527Z,10.28
2019-04-03T17:19:32.201Z,10.08
2019-04-03T17:22:00.973Z,7.78
2019-04-03T17:24:40.984Z,8.25
2019-04-03T17:27:00.596Z,10.53
2019-04-03T17:29:29.342Z,12.00
2019-04-03T17:31:58.892Z,9.20
2019-04-03T17:34:27.948Z,9.30
2019-04-03T17:36:56.826Z,12.23
2019-04-03T17:39:25.529Z,11.85
2019-04-03T17:41:54.218Z,11.25
2019-04-03T17:44:22.906Z,12.65
2019-04-03T17:46:51.584Z,14.90
2019-04-03T17:49:20.272Z,12.85
2019-04-03T17:51:48.949Z,12.37
2019-04-03T17:54:17.696Z,12.45
2019-04-03T17:56:46.378Z,25.92
2019-04-03T17:59:15.050Z,19.27
2019-04-03T18:01:43.793Z,16.65
2019-04-03T18:04:12.538Z,12.50
2019-04-03T18:06:41.285Z,9.93
2019-04-03T18:09:10.064Z,12.30
2019-04-03T18:11:38.750Z,12.05
2019-04-03T18:14:07.490Z,20.92
2019-04-03T18:16:36.171Z,11.40
2019-04-03T18:19:05.487Z,11.22
2019-04-03T18:21:34.267Z,12.98
2019-04-03T18:24:03.017Z,12.37
2019-04-03T18:26:31.692Z,10.48
2019-04-03T18:29:00.379Z,10.85
2019-04-03T18:31:29.116Z,11.88
2019-04-03T18:33:57.869Z,11.25
2019-04-03T18:36:30.977Z,9.60
2019-04-03T18:38:57.005Z,5.70
2019-04-03T18:41:25.750Z,13.05
2019-04-03T18:43:55.042Z,9.23
2019-04-03T18:46:32.165Z,9.30
2019-04-03T18:48:58.890Z,13.25
2019-04-03T18:51:24.334Z,12.53
2019-04-03T18:53:52.946Z,23.92
2019-04-03T18:56:21.628Z,14.43
2019-04-03T18:58:50.405Z,10.98
2019-04-03T19:01:19.176Z,10.53
2019-04-03T19:03:47.855Z,13.38
2019-04-03T19:06:16.533Z,10.20
2019-04-03T19:08:45.202Z,11.83
2019-04-03T19:11:13.881Z,12.40
2019-04-03T19:13:44.592Z,9.90
2019-04-03T19:16:16.593Z,10.63
2019-04-03T19:18:43.269Z,12.20
2019-04-03T19:21:24.055Z,9.88
2019-04-03T19:23:49.523Z,12.35
2019-04-03T19:26:12.677Z,7.65
2019-04-03T19:28:41.362Z,10.55
2019-04-03T19:31:10.073Z,10.53
2019-04-03T19:33:38.727Z,11.15
2019-04-03T19:36:07.392Z,10.93
2019-04-03T19:38:36.405Z,11.35
2019-04-03T19:41:05.373Z,13.08
2019-04-03T19:43:34.048Z,12.13
2019-04-03T19:46:02.721Z,15.30
2019-04-03T19:48:31.398Z,14.93
2019-04-03T19:51:02.731Z,10.78
2019-04-03T19:53:30.464Z,10.00
2019-04-03T19:55:59.135Z,9.73
2019-04-03T19:58:29.521Z,10.28
2019-04-03T20:00:58.201Z,10.08
2019-04-03T20:03:26.880Z,11.75
2019-04-03T20:05:55.622Z,10.90
2019-04-03T20:08:24.312Z,10.68
2019-04-03T20:10:53.032Z,10.50
2019-04-03T20:13:21.705Z,10.88
2019-04-03T20:15:53.705Z,9.30
2019-04-03T20:18:20.845Z,9.68
2019-04-03T20:20:49.518Z,11.15
2019-04-03T20:23:18.193Z,11.63
2019-04-03T20:25:54.633Z,10.20
2019-04-03T20:28:24.069Z,10.75
2019-04-03T20:30:52.985Z,10.98
2019-04-03T20:33:21.662Z,9.88
2019-04-03T20:35:50.351Z,10.82
2019-04-03T20:38:19.013Z,11.20
2019-04-03T20:40:47.764Z,11.78
2019-04-03T20:43:16.441Z,15.30
2019-04-03T20:45:45.113Z,10.70
2019-04-03T20:48:13.785Z,10.68
2019-04-03T20:50:42.533Z,10.80
2019-04-03T20:53:11.210Z,10.70
2019-04-03T20:55:39.877Z,9.78
2019-04-03T20:58:08.575Z,10.13
2019-04-03T21:00:37.227Z,10.10
2019-04-03T21:03:05.905Z,9.83
2019-04-03T21:05:34.645Z,10.10
2019-04-03T21:08:03.326Z,9.70
2019-04-03T21:10:32.070Z,10.28
2019-04-03T21:13:00.776Z,10.13
2019-04-03T21:15:29.527Z,10.60
2019-04-03T21:17:58.274Z,10.53
2019-04-03T21:20:26.948Z,9.95
2019-04-03T21:22:55.613Z,9.53
2019-04-03T21:25:24.283Z,9.50
2019-04-03T21:27:52.952Z,9.90
2019-04-03T21:30:23.713Z,14.83
2019-04-03T21:32:51.962Z,9.45
2019-04-03T21:35:20.709Z,10.25
2019-04-03T21:37:49.370Z,9.63
2019-04-03T21:40:18.050Z,10.80
2019-04-03T21:42:46.722Z,10.50
2019-04-03T21:45:15.397Z,11.00
2019-04-03T21:47:44.070Z,10.20
2019-04-03T21:50:14.118Z,11.10
2019-04-03T21:52:42.788Z,10.40
2019-04-03T21:55:11.541Z,11.10
2019-04-03T21:57:40.289Z,10.80
2019-04-03T22:00:13.182Z,9.58
2019-04-03T22:02:40.720Z,11.10
2019-04-03T22:05:09.861Z,10.30
2019-04-03T22:07:38.547Z,10.15
2019-04-03T22:10:09.031Z,10.98
2019-04-03T22:12:38.034Z,10.35
2019-04-03T22:15:07.375Z,10.43
2019-04-03T22:17:36.119Z,9.25
2019-04-03T22:20:05.862Z,9.78
2019-04-03T22:22:34.513Z,10.65
2019-04-03T22:25:03.629Z,10.15
2019-04-03T22:27:32.293Z,9.78
2019-04-03T22:30:00.984Z,10.78
2019-04-03T22:32:29.657Z,10.80
2019-04-03T22:35:00.534Z,10.63
2019-04-03T22:37:28.646Z,11.05
2019-04-03T22:39:57.325Z,10.68
2019-04-03T22:42:26.005Z,9.98
2019-04-03T22:44:54.673Z,9.90
2019-04-03T22:47:25.032Z,10.80
2019-04-03T22:49:53.669Z,11.53
2019-04-03T22:52:22.479Z,10.05
2019-04-03T22:54:51.161Z,12.40
2019-04-03T22:57:20.225Z,10.82
2019-04-03T22:59:48.993Z,11.22
2019-04-03T23:02:17.657Z,10.90
2019-04-03T23:04:46.471Z,10.93
2019-04-03T23:07:15.220Z,11.15
2019-04-03T23:09:43.886Z,11.00
2019-04-03T23:12:12.639Z,11.05
2019-04-03T23:14:41.314Z,11.03
2019-04-03T23:17:09.993Z,11.33
2019-04-03T23:19:38.667Z,10.82
2019-04-03T23:22:07.405Z,10.40
2019-04-03T23:24:36.091Z,10.35
2019-04-03T23:27:04.829Z,11.55
2019-04-03T23:29:35.901Z,10.85
2019-04-03T23:32:03.900Z,8.05
2019-04-03T23:34:32.648Z,10.93
2019-04-03T23:37:01.384Z,10.75
2019-04-03T23:39:30.066Z,11.15
2019-04-03T23:41:58.731Z,10.93
2019-04-03T23:44:27.411Z,11.57
2019-04-03T23:46:56.156Z,11.75
2019-04-03T23:49:24.896Z,11.55
2019-04-03T23:51:53.576Z,11.75
2019-04-03T23:54:22.249Z,10.88
2019-04-03T23:56:50.929Z,10.95
2019-04-03T23:59:19.609Z,11.60
